createdAt,value
2024-02-16T00:04:40.389Z,10.16
2024-02-16T00:09:41.197Z,10.08
2024-02-16T00:14:42.042Z,9.88
2024-02-16T00:19:42.958Z,9.88
2024-02-16T00:24:44.065Z,9.91
2024-02-16T00:29:46.497Z,9.84
2024-02-16T00:34:47.323Z,9.88
2024-02-16T00:39:48.370Z,10.04
2024-02-16T00:44:49.396Z,10.08
2024-02-16T00:49:50.260Z,10.17
2024-02-16T00:54:51.232Z,10.23
2024-02-16T00:59:52.039Z,10.14
2024-02-16T01:04:53.355Z,10.06
2024-02-16T01:09:55.088Z,10.08
2024-02-16T01:14:56.014Z,9.86
2024-02-16T01:19:57.208Z,9.75
2024-02-16T01:24:58.444Z,9.65
2024-02-16T01:29:59.219Z,9.81
2024-02-16T01:35:00.129Z,9.78
2024-02-16T01:40:03.395Z,9.90
2024-02-16T01:45:04.771Z,9.87
2024-02-16T01:50:07.458Z,9.73
2024-02-16T01:55:12.299Z,9.71
2024-02-16T02:00:15.330Z,9.73
2024-02-16T02:05:16.913Z,9.74
2024-02-16T02:10:17.957Z,9.78
2024-02-16T02:15:19.678Z,9.76
2024-02-16T02:20:20.676Z,9.75
2024-02-16T02:25:24.092Z,9.73
2024-02-16T02:30:26.420Z,9.71
2024-02-16T02:35:27.286Z,9.68
2024-02-16T02:40:28.110Z,9.76
2024-02-16T02:45:29.047Z,9.70
2024-02-16T02:50:31.214Z,9.70
2024-02-16T02:55:32.137Z,9.73
2024-02-16T03:00:33.260Z,9.83
2024-02-16T03:05:34.126Z,9.77
2024-02-16T03:10:36.217Z,9.83
2024-02-16T03:15:37.512Z,9.79
2024-02-16T03:20:38.299Z,9.80
2024-02-16T03:25:39.695Z,9.86
2024-02-16T03:30:40.893Z,9.78
2024-02-16T03:35:41.757Z,9.74
2024-02-16T03:40:42.535Z,9.80
2024-02-16T03:45:43.428Z,9.94
2024-02-16T03:50:44.229Z,9.87
2024-02-16T03:55:45.197Z,9.90
2024-02-16T04:00:46.149Z,9.82
2024-02-16T04:05:47.281Z,9.81
2024-02-16T04:10:48.243Z,9.78
2024-02-16T04:15:52.425Z,9.84
2024-02-16T04:20:55.517Z,9.88
2024-02-16T04:25:56.860Z,9.78
2024-02-16T04:30:57.712Z,9.69
2024-02-16T04:35:58.552Z,9.64
2024-02-16T04:40:59.443Z,9.57
2024-02-16T04:46:01.086Z,9.55
2024-02-16T04:51:02.270Z,9.50
2024-02-16T04:56:05.360Z,9.46
2024-02-16T05:01:07.425Z,9.64
2024-02-16T05:06:08.394Z,9.73
2024-02-16T05:11:09.449Z,9.70
2024-02-16T05:16:11.441Z,9.80
2024-02-16T05:21:12.263Z,9.96
2024-02-16T05:26:13.199Z,9.90
2024-02-16T05:31:19.012Z,9.85
2024-02-16T05:36:21.039Z,9.88
2024-02-16T05:41:21.870Z,9.85
2024-02-16T05:46:23.983Z,9.85
2024-02-16T05:51:24.953Z,9.86
2024-02-16T05:56:25.928Z,9.95
2024-02-16T06:01:28.190Z,10.11
2024-02-16T06:06:29.153Z,10.04
2024-02-16T06:11:30.228Z,10.05
2024-02-16T06:16:31.103Z,10.20
2024-02-16T06:21:31.944Z,9.98
2024-02-16T06:26:32.882Z,9.86
2024-02-16T06:31:33.657Z,9.89
2024-02-16T06:36:34.965Z,9.89
2024-02-16T06:41:35.845Z,9.87
2024-02-16T06:46:36.654Z,9.83
2024-02-16T06:51:37.556Z,10.26
2024-02-16T06:56:38.802Z,10.13
2024-02-16T07:01:41.029Z,10.14
2024-02-16T07:06:42.442Z,9.95
2024-02-16T07:11:48.290Z,9.93
2024-02-16T07:16:50.606Z,9.90
2024-02-16T07:21:52.700Z,9.92
2024-02-16T07:26:53.808Z,9.89
2024-02-16T07:31:56.368Z,10.10
2024-02-16T07:36:57.469Z,10.04
2024-02-16T07:41:58.422Z,10.05
2024-02-16T07:46:59.427Z,10.10
2024-02-16T07:52:00.255Z,10.16
2024-02-16T07:57:02.136Z,10.24
2024-02-16T08:02:03.538Z,10.29
2024-02-16T08:07:04.384Z,10.39
2024-02-16T08:12:07.364Z,10.51
2024-02-16T08:17:15.784Z,10.49
2024-02-16T08:22:22.470Z,10.54
2024-02-16T08:27:23.567Z,10.62
2024-02-16T08:32:24.535Z,10.63
2024-02-16T08:37:26.037Z,10.60
2024-02-16T08:42:26.984Z,10.73
2024-02-16T08:47:28.069Z,10.74
2024-02-16T08:52:29.039Z,10.96
2024-02-16T08:57:32.632Z,11.01
2024-02-16T09:02:33.622Z,10.98
2024-02-16T09:07:34.522Z,11.10
2024-02-16T09:12:35.720Z,11.18
2024-02-16T09:17:37.013Z,11.20
2024-02-16T09:27:47.320Z,11.40
2024-02-16T09:32:48.143Z,11.57
2024-02-16T09:37:49.011Z,11.51
2024-02-16T09:42:50.189Z,11.63
2024-02-16T09:48:01.213Z,11.69
2024-02-16T09:53:14.460Z,11.80
2024-02-16T09:58:18.516Z,12.00
2024-02-16T10:03:30.568Z,12.27
2024-02-16T10:08:31.662Z,12.36
2024-02-16T10:13:32.699Z,12.49
2024-02-16T10:18:33.822Z,12.70
2024-02-16T10:23:43.586Z,13.00
2024-02-16T10:28:46.662Z,13.22
2024-02-16T10:33:47.992Z,13.59
2024-02-16T10:38:51.177Z,13.79
2024-02-16T10:43:54.329Z,14.19
2024-02-16T10:48:55.636Z,13.99
2024-02-16T10:53:59.477Z,13.79
2024-02-16T10:59:04.568Z,14.07
2024-02-16T11:04:10.106Z,13.96
2024-02-16T11:09:11.113Z,13.57
2024-02-16T11:14:16.334Z,14.21
2024-02-16T11:19:17.555Z,15.01
2024-02-16T11:24:23.963Z,15.28
2024-02-16T11:29:26.259Z,15.49
2024-02-16T11:34:28.110Z,15.99
2024-02-16T11:39:33.447Z,15.80
2024-02-16T11:44:40.213Z,16.41
2024-02-16T11:49:41.451Z,16.66
2024-02-16T11:54:45.662Z,16.31
2024-02-16T11:59:46.869Z,16.10
2024-02-16T12:04:55.396Z,15.96
2024-02-16T12:10:06.657Z,15.62
2024-02-16T12:15:08.424Z,15.42
2024-02-16T12:20:16.554Z,15.16
2024-02-16T12:25:17.627Z,15.01
2024-02-16T12:30:18.776Z,14.95
2024-02-16T12:35:19.709Z,14.83
2024-02-16T12:40:20.550Z,14.96
2024-02-16T12:45:24.267Z,15.07
2024-02-16T12:50:25.568Z,15.22
2024-02-16T12:55:26.518Z,15.20
2024-02-16T13:00:27.460Z,15.10
2024-02-16T13:05:29.445Z,14.68
2024-02-16T13:10:30.686Z,14.49
2024-02-16T13:15:31.674Z,14.48
2024-02-16T13:20:34.786Z,14.37
2024-02-16T13:25:36.543Z,14.14
2024-02-16T13:30:37.668Z,14.03
2024-02-16T13:35:39.423Z,13.93
2024-02-16T13:40:41.707Z,14.02
2024-02-16T13:45:53.567Z,14.18
2024-02-16T13:50:56.362Z,14.18
2024-02-16T13:56:01.177Z,14.09
2024-02-16T14:01:04.109Z,14.06
2024-02-16T14:06:06.143Z,13.87
2024-02-16T14:11:08.688Z,13.73
2024-02-16T14:16:10.508Z,13.72
2024-02-16T14:21:11.893Z,13.64
2024-02-16T14:26:12.739Z,13.41
2024-02-16T14:31:14.508Z,13.23
2024-02-16T14:36:16.192Z,13.28
2024-02-16T14:41:17.117Z,13.20
2024-02-16T14:46:17.925Z,13.15
2024-02-16T14:51:18.866Z,13.13
2024-02-16T14:56:22.152Z,13.00
2024-02-16T15:01:23.171Z,12.99
2024-02-16T15:06:24.073Z,12.90
2024-02-16T15:11:24.956Z,12.75
2024-02-16T15:16:25.796Z,12.64
2024-02-16T15:21:28.039Z,12.48
2024-02-16T15:26:28.984Z,12.47
2024-02-16T15:31:29.962Z,12.29
2024-02-16T15:36:31.857Z,12.27
2024-02-16T15:41:32.716Z,12.25
2024-02-16T15:46:34.788Z,12.22
2024-02-16T15:51:35.750Z,11.99
2024-02-16T15:56:37.175Z,11.97
2024-02-16T16:01:38.349Z,11.85
2024-02-16T16:06:39.473Z,11.83
2024-02-16T16:11:43.742Z,11.77
2024-02-16T16:16:44.910Z,11.79
2024-02-16T16:21:46.046Z,11.80
2024-02-16T16:26:49.073Z,11.78
2024-02-16T16:31:50.022Z,11.83
2024-02-16T16:36:51.044Z,11.79
2024-02-16T16:41:55.362Z,11.66
2024-02-16T16:46:56.474Z,11.65
2024-02-16T16:51:58.554Z,11.66
2024-02-16T16:56:59.392Z,11.60
2024-02-16T17:02:03.763Z,11.54
2024-02-16T17:07:04.710Z,11.56
2024-02-16T17:12:07.191Z,11.56
2024-02-16T17:17:07.983Z,11.70
2024-02-16T17:22:08.950Z,11.52
2024-02-16T17:27:09.874Z,11.52
2024-02-16T17:32:11.518Z,11.42
2024-02-16T17:37:12.470Z,11.45
2024-02-16T17:42:13.452Z,11.47
2024-02-16T17:47:15.257Z,11.52
2024-02-16T17:52:17.575Z,11.52
2024-02-16T17:57:19.636Z,11.59
2024-02-16T18:02:29.505Z,11.52
2024-02-16T18:07:40.013Z,11.52
2024-02-16T18:12:41.266Z,11.38
2024-02-16T18:17:42.284Z,11.42
2024-02-16T18:22:43.184Z,11.35
2024-02-16T18:27:44.154Z,11.32
2024-02-16T18:32:45.171Z,11.27
2024-02-16T18:37:46.038Z,11.20
2024-02-16T18:42:48.999Z,11.28
2024-02-16T18:47:50.039Z,11.21
2024-02-16T18:52:51.002Z,11.16
2024-02-16T18:57:53.080Z,11.16
2024-02-16T19:02:54.149Z,11.08
2024-02-16T19:07:55.059Z,11.09
2024-02-16T19:12:56.102Z,11.11
2024-02-16T19:17:57.045Z,11.05
2024-02-16T19:22:58.891Z,11.10
2024-02-16T19:27:59.671Z,11.04
2024-02-16T19:33:01.073Z,11.12
2024-02-16T19:38:02.008Z,11.04
2024-02-16T19:43:03.540Z,10.93
2024-02-16T19:48:04.883Z,11.03
2024-02-16T19:53:05.902Z,10.94
2024-02-16T19:58:06.675Z,10.89
2024-02-16T20:03:08.722Z,11.01
2024-02-16T20:08:09.605Z,11.00
2024-02-16T20:13:11.515Z,11.02
2024-02-16T20:18:17.821Z,10.93
2024-02-16T20:23:18.751Z,10.89
2024-02-16T20:28:19.574Z,10.95
2024-02-16T20:33:20.638Z,10.95
2024-02-16T20:38:21.621Z,10.90
2024-02-16T20:43:22.475Z,10.90
2024-02-16T20:48:23.971Z,10.97
2024-02-16T20:53:24.832Z,10.80
2024-02-16T20:58:25.678Z,10.60
2024-02-16T21:03:26.652Z,10.43
2024-02-16T21:08:27.553Z,10.25
2024-02-16T21:13:28.344Z,10.17
2024-02-16T21:18:29.773Z,10.01
2024-02-16T21:23:30.684Z,9.87
2024-02-16T21:28:31.511Z,9.78
2024-02-16T21:33:35.918Z,9.82
2024-02-16T21:38:37.071Z,9.75
2024-02-16T21:43:38.831Z,9.74
2024-02-16T21:48:44.463Z,9.76
2024-02-16T21:53:50.723Z,9.68
2024-02-16T21:58:51.510Z,9.63
2024-02-16T22:03:52.834Z,9.61
2024-02-16T22:08:54.214Z,9.49
2024-02-16T22:13:55.127Z,9.47
2024-02-16T22:18:56.088Z,9.44
2024-02-16T22:23:58.342Z,9.44
2024-02-16T22:28:59.121Z,9.46
2024-02-16T22:34:00.284Z,9.36
2024-02-16T22:39:01.734Z,9.33
2024-02-16T22:44:04.064Z,9.27
2024-02-16T22:49:05.213Z,9.21
2024-02-16T22:54:06.188Z,9.12
2024-02-16T22:59:07.049Z,9.06
2024-02-16T23:04:08.516Z,9.09
2024-02-16T23:09:10.487Z,9.07
2024-02-16T23:14:11.605Z,9.06
2024-02-16T23:19:12.515Z,8.91
2024-02-16T23:24:13.418Z,8.87
2024-02-16T23:29:16.649Z,8.77
2024-02-16T23:34:17.716Z,8.68
2024-02-16T23:39:18.695Z,8.68
2024-02-16T23:44:19.644Z,8.58
2024-02-16T23:49:20.580Z,8.53
2024-02-16T23:54:21.439Z,8.55
2024-02-16T23:59:22.246Z,8.45
